createdAt,value
2017-11-19T00:01:55.056Z,44.47
2017-11-19T00:04:20.835Z,45.75
2017-11-19T00:06:46.629Z,45.74
2017-11-19T00:09:12.467Z,45.57
2017-11-19T00:11:38.511Z,45.73
2017-11-19T00:14:04.318Z,44.63
2017-11-19T00:16:30.105Z,44.50
2017-11-19T00:18:55.893Z,44.66
2017-11-19T00:21:21.687Z,45.54
2017-11-19T00:23:47.504Z,45.11
2017-11-19T00:26:13.288Z,45.03
2017-11-19T00:28:39.081Z,44.67
2017-11-19T00:31:04.870Z,46.55
2017-11-19T00:33:30.887Z,45.02
2017-11-19T00:35:56.679Z,46.35
2017-11-19T00:38:22.479Z,45.19
2017-11-19T00:40:48.269Z,46.32
2017-11-19T00:43:14.060Z,45.47
2017-11-19T00:45:39.851Z,45.91
2017-11-19T00:48:05.634Z,45.49
2017-11-19T00:50:31.573Z,44.93
2017-11-19T00:52:57.366Z,45.03
2017-11-19T00:55:23.170Z,45.92
2017-11-19T00:57:48.986Z,46.29
2017-11-19T01:00:14.858Z,45.87
2017-11-19T01:02:40.645Z,45.12
2017-11-19T01:05:12.727Z,45.03
2017-11-19T01:07:38.538Z,45.85
2017-11-19T01:10:04.364Z,46.29
2017-11-19T01:12:30.189Z,46.03
2017-11-19T01:14:55.992Z,44.67
2017-11-19T01:17:21.845Z,44.72
2017-11-19T01:19:47.674Z,44.35
2017-11-19T01:22:13.452Z,44.68
2017-11-19T01:24:39.333Z,45.88
2017-11-19T01:27:05.119Z,47.15
2017-11-19T01:29:30.907Z,46.27
2017-11-19T01:31:56.693Z,45.65
2017-11-19T01:34:22.521Z,46.16
2017-11-19T01:36:48.321Z,44.79
2017-11-19T01:39:14.112Z,45.29
2017-11-19T01:41:39.908Z,46.87
2017-11-19T01:44:05.891Z,45.78
2017-11-19T01:46:31.680Z,46.17
2017-11-19T01:48:57.469Z,45.53
2017-11-19T01:51:23.261Z,47.67
2017-11-19T01:53:49.046Z,45.46
2017-11-19T01:56:15.953Z,44.92
2017-11-19T01:58:41.734Z,45.49
2017-11-19T02:01:07.562Z,47.13
2017-11-19T02:03:33.349Z,45.73
2017-11-19T02:05:59.140Z,46.38
2017-11-19T02:08:24.923Z,46.03
2017-11-19T02:10:50.725Z,44.73
2017-11-19T02:13:16.515Z,44.76
2017-11-19T02:15:42.374Z,46.93
2017-11-19T02:18:08.254Z,46.62
2017-11-19T02:20:34.025Z,46.63
2017-11-19T02:22:59.819Z,46.13
2017-11-19T02:25:25.640Z,46.18
2017-11-19T02:27:51.489Z,44.78
2017-11-19T02:30:17.273Z,47.01
2017-11-19T02:32:43.056Z,45.28
2017-11-19T02:35:08.839Z,46.58
2017-11-19T02:37:34.619Z,47.45
2017-11-19T02:40:00.401Z,45.56
2017-11-19T02:42:26.180Z,45.60
2017-11-19T02:44:52.738Z,46.28
2017-11-19T02:47:18.525Z,46.03
2017-11-19T02:49:44.321Z,46.38
2017-11-19T02:52:10.136Z,45.98
2017-11-19T02:54:35.916Z,45.65
2017-11-19T02:57:01.695Z,44.98
2017-11-19T02:59:28.265Z,45.44
2017-11-19T03:01:54.165Z,44.99
2017-11-19T03:04:19.949Z,45.63
2017-11-19T03:06:45.732Z,44.51
2017-11-19T03:09:11.506Z,44.95
2017-11-19T03:11:37.281Z,44.56
2017-11-19T03:14:03.066Z,44.67
2017-11-19T03:16:28.881Z,47.18
2017-11-19T03:18:54.654Z,46.39
2017-11-19T03:21:21.331Z,45.71
2017-11-19T03:23:47.109Z,44.59
2017-11-19T03:26:12.896Z,44.39
2017-11-19T03:28:38.689Z,45.23
2017-11-19T03:31:04.477Z,44.20
2017-11-19T03:33:30.313Z,44.56
2017-11-19T03:35:56.080Z,45.17
2017-11-19T03:38:21.852Z,48.03
2017-11-19T03:40:47.664Z,46.54
2017-11-19T03:43:13.484Z,45.04
2017-11-19T03:45:39.294Z,45.17
2017-11-19T03:48:05.167Z,46.08
2017-11-19T03:50:30.938Z,44.41
2017-11-19T03:52:56.741Z,45.57
2017-11-19T03:55:22.558Z,47.58
2017-11-19T03:57:48.380Z,45.67
2017-11-19T04:00:14.156Z,44.87
2017-11-19T04:02:39.977Z,45.61
2017-11-19T04:05:05.753Z,44.76
2017-11-19T04:07:31.532Z,46.97
2017-11-19T04:09:58.210Z,45.47
2017-11-19T04:12:23.989Z,45.40
2017-11-19T04:14:49.815Z,46.08
2017-11-19T04:17:15.597Z,46.32
2017-11-19T04:19:41.372Z,45.13
2017-11-19T04:22:07.158Z,44.40
2017-11-19T04:24:32.953Z,44.60
2017-11-19T04:26:58.746Z,45.81
2017-11-19T04:29:24.549Z,44.81
2017-11-19T04:31:50.342Z,44.46
2017-11-19T04:34:16.125Z,45.41
2017-11-19T04:36:41.913Z,44.37
2017-11-19T04:39:07.734Z,44.69
2017-11-19T04:41:33.512Z,45.85
2017-11-19T04:43:59.325Z,45.76
2017-11-19T04:46:25.101Z,45.35
2017-11-19T04:48:50.873Z,45.03
2017-11-19T04:51:16.664Z,45.37
2017-11-19T04:53:42.445Z,44.95
2017-11-19T04:56:08.280Z,45.47
2017-11-19T04:58:34.068Z,45.11
2017-11-19T05:00:59.852Z,44.59
2017-11-19T05:03:25.815Z,45.13
2017-11-19T05:05:51.592Z,45.28
2017-11-19T05:08:18.302Z,45.52
2017-11-19T05:10:44.094Z,46.37
2017-11-19T05:13:09.883Z,44.38
2017-11-19T05:15:35.692Z,46.53
2017-11-19T05:18:01.483Z,44.34
2017-11-19T05:20:27.269Z,45.12
2017-11-19T05:22:54.018Z,45.16
2017-11-19T05:25:19.802Z,46.98
2017-11-19T05:27:45.633Z,44.36
2017-11-19T05:30:11.633Z,46.11
2017-11-19T05:32:38.391Z,45.66
2017-11-19T05:35:04.177Z,44.23
2017-11-19T05:37:29.961Z,44.89
2017-11-19T05:39:55.743Z,45.28
2017-11-19T05:42:21.522Z,45.08
2017-11-19T05:44:47.301Z,45.00
2017-11-19T05:47:13.238Z,44.44
2017-11-19T05:49:39.061Z,46.64
2017-11-19T05:52:04.849Z,46.42
2017-11-19T05:54:30.669Z,45.65
2017-11-19T05:56:56.584Z,45.37
2017-11-19T05:59:22.365Z,44.07
2017-11-19T06:01:49.208Z,45.52
2017-11-19T06:04:14.997Z,45.97
2017-11-19T06:06:40.777Z,45.17
2017-11-19T06:09:06.569Z,44.68
2017-11-19T06:11:32.353Z,44.17
2017-11-19T06:13:58.128Z,44.17
2017-11-19T06:16:24.066Z,44.74
2017-11-19T06:18:49.848Z,44.60
2017-11-19T06:21:15.641Z,44.08
2017-11-19T06:23:41.416Z,44.36
2017-11-19T06:26:07.207Z,45.17
2017-11-19T06:28:33.017Z,43.45
2017-11-19T06:30:58.877Z,45.36
2017-11-19T06:33:24.724Z,44.05
2017-11-19T06:35:57.464Z,43.60
2017-11-19T06:38:23.274Z,45.22
2017-11-19T06:40:49.218Z,44.34
2017-11-19T06:43:15.071Z,43.87
2017-11-19T06:45:40.856Z,44.36
2017-11-19T06:48:06.634Z,44.90
2017-11-19T06:50:32.427Z,44.65
2017-11-19T06:52:58.238Z,43.76
2017-11-19T06:55:24.053Z,44.26
2017-11-19T06:57:49.867Z,44.39
2017-11-19T07:00:15.651Z,44.83
2017-11-19T07:02:41.430Z,43.57
2017-11-19T07:05:07.247Z,44.34
2017-11-19T07:07:33.190Z,44.36
2017-11-19T07:09:58.990Z,45.49
2017-11-19T07:12:24.792Z,44.84
2017-11-19T07:14:50.577Z,44.80
2017-11-19T07:17:18.554Z,43.99
2017-11-19T07:19:44.341Z,44.34
2017-11-19T07:22:10.149Z,44.02
2017-11-19T07:24:36.630Z,43.92
2017-11-19T07:27:03.818Z,44.61
2017-11-19T07:29:31.324Z,45.39
2017-11-19T07:31:57.181Z,44.14
2017-11-19T07:34:22.981Z,44.78
2017-11-19T07:36:48.920Z,44.01
2017-11-19T07:39:14.736Z,43.68
2017-11-19T07:41:40.533Z,43.88
2017-11-19T07:44:06.374Z,43.35
2017-11-19T07:46:32.198Z,43.26
2017-11-19T07:48:57.980Z,43.30
2017-11-19T07:51:23.813Z,43.11
2017-11-19T07:53:49.593Z,44.03
2017-11-19T07:56:16.301Z,43.64
2017-11-19T07:58:42.089Z,43.18
2017-11-19T08:01:08.088Z,44.29
2017-11-19T08:03:33.873Z,43.95
2017-11-19T08:05:59.807Z,43.93
2017-11-19T08:08:25.582Z,44.05
2017-11-19T08:10:51.375Z,43.42
2017-11-19T08:13:17.159Z,44.20
2017-11-19T08:15:42.954Z,43.40
2017-11-19T08:18:08.792Z,41.57
2017-11-19T08:20:34.561Z,41.07
2017-11-19T08:23:00.506Z,42.15
2017-11-19T08:25:27.250Z,42.48
2017-11-19T08:27:53.040Z,43.54
2017-11-19T08:30:18.828Z,43.40
2017-11-19T08:32:44.651Z,43.77
2017-11-19T08:35:10.761Z,43.56
2017-11-19T08:37:36.579Z,42.96
2017-11-19T08:40:02.611Z,43.29
2017-11-19T08:42:28.609Z,43.44
2017-11-19T08:44:55.350Z,43.59
2017-11-19T08:47:21.126Z,43.39
2017-11-19T08:49:46.981Z,43.37
2017-11-19T08:52:12.777Z,43.39
2017-11-19T08:54:38.724Z,43.22
2017-11-19T08:57:04.505Z,43.28
2017-11-19T08:59:30.288Z,43.29
2017-11-19T09:01:56.100Z,43.23
2017-11-19T09:04:21.886Z,43.17
2017-11-19T09:06:47.832Z,43.56
2017-11-19T09:09:13.637Z,43.50
2017-11-19T09:11:39.434Z,42.26
2017-11-19T09:14:05.281Z,41.37
2017-11-19T09:16:31.057Z,41.05
2017-11-19T09:18:56.851Z,40.64
2017-11-19T09:21:23.689Z,41.08
2017-11-19T09:23:49.491Z,42.16
2017-11-19T09:26:15.266Z,43.14
2017-11-19T09:28:41.234Z,42.69
2017-11-19T09:31:07.125Z,42.65
2017-11-19T09:33:32.942Z,43.21
2017-11-19T09:35:59.007Z,43.28
2017-11-19T09:38:25.496Z,43.34
2017-11-19T09:40:51.352Z,43.96
2017-11-19T09:43:17.145Z,43.11
2017-11-19T09:45:43.104Z,43.58
2017-11-19T09:48:09.385Z,43.58
2017-11-19T09:50:35.170Z,43.41
2017-11-19T09:53:00.974Z,43.74
2017-11-19T09:55:26.761Z,43.39
2017-11-19T09:57:52.645Z,43.75
2017-11-19T10:00:19.541Z,43.02
2017-11-19T10:02:45.322Z,44.07
2017-11-19T10:05:11.290Z,43.23
2017-11-19T10:07:37.211Z,43.58
2017-11-19T10:10:03.147Z,43.45
2017-11-19T10:12:29.092Z,43.57
2017-11-19T10:14:54.938Z,43.37
2017-11-19T10:17:20.716Z,43.38
2017-11-19T10:19:46.641Z,43.71
2017-11-19T10:22:12.430Z,43.53
2017-11-19T10:24:38.244Z,43.12
2017-11-19T10:27:04.028Z,43.99
2017-11-19T10:29:29.808Z,43.72
2017-11-19T10:31:56.021Z,43.49
2017-11-19T10:34:21.973Z,43.25
2017-11-19T10:36:47.813Z,43.95
2017-11-19T10:39:13.669Z,44.68
2017-11-19T10:41:39.461Z,44.34
2017-11-19T10:44:05.898Z,44.00
2017-11-19T10:46:31.704Z,44.03
2017-11-19T10:51:43.798Z,44.15
2017-11-19T10:54:09.595Z,44.71
2017-11-19T10:56:35.393Z,44.01
2017-11-19T10:59:01.200Z,44.39
2017-11-19T11:01:27.068Z,44.50
2017-11-19T11:03:53.001Z,44.15
2017-11-19T11:06:18.805Z,44.66
2017-11-19T11:08:44.721Z,44.36
2017-11-19T11:11:10.517Z,44.54
2017-11-19T11:13:36.510Z,45.41
2017-11-19T11:16:02.384Z,44.53
2017-11-19T11:18:28.315Z,44.38
2017-11-19T11:20:54.110Z,44.13
2017-11-19T11:23:19.907Z,44.52
2017-11-19T11:25:45.701Z,44.67
2017-11-19T11:28:11.489Z,44.72
2017-11-19T11:30:37.303Z,44.97
2017-11-19T11:33:03.236Z,44.75
2017-11-19T11:35:29.017Z,45.05
2017-11-19T11:37:54.813Z,44.85
2017-11-19T11:40:20.605Z,45.06
2017-11-19T11:42:46.505Z,45.32
2017-11-19T11:45:12.289Z,44.61
2017-11-19T11:47:38.162Z,44.35
2017-11-19T11:50:03.953Z,44.28
2017-11-19T11:52:29.889Z,44.45
2017-11-19T11:54:55.725Z,44.30
2017-11-19T11:57:21.639Z,44.03
2017-11-19T11:59:47.556Z,44.29
2017-11-19T12:02:13.344Z,44.57
2017-11-19T12:04:39.192Z,44.20
2017-11-19T12:07:05.117Z,44.36
2017-11-19T12:09:30.928Z,44.48
2017-11-19T12:11:57.589Z,44.35
2017-11-19T12:14:23.420Z,44.22
2017-11-19T12:16:49.197Z,44.26
2017-11-19T12:19:14.991Z,44.32
2017-11-19T12:21:40.771Z,44.35
2017-11-19T12:24:06.555Z,44.33
2017-11-19T12:26:32.366Z,45.78
2017-11-19T12:28:58.171Z,44.77
2017-11-19T12:31:24.028Z,44.43
2017-11-19T12:33:49.812Z,44.29
2017-11-19T12:36:15.605Z,44.48
2017-11-19T12:38:41.525Z,44.92
2017-11-19T12:41:09.562Z,44.54
2017-11-19T12:43:35.340Z,46.17
2017-11-19T12:46:01.133Z,44.92
2017-11-19T12:48:26.916Z,44.93
2017-11-19T12:50:52.734Z,44.78
2017-11-19T12:53:18.664Z,44.86
2017-11-19T12:55:44.444Z,44.89
2017-11-19T12:58:10.266Z,45.09
2017-11-19T13:00:36.058Z,45.10
2017-11-19T13:03:01.877Z,44.79
2017-11-19T13:05:27.670Z,44.81
2017-11-19T13:07:53.486Z,45.05
2017-11-19T13:10:19.516Z,45.06
2017-11-19T13:12:45.302Z,44.89
2017-11-19T13:15:11.293Z,45.27
2017-11-19T13:17:37.064Z,45.17
2017-11-19T13:20:02.904Z,45.29
2017-11-19T13:22:28.761Z,45.55
2017-11-19T13:24:54.728Z,45.77
2017-11-19T13:27:20.513Z,46.43
2017-11-19T13:29:46.293Z,46.72
2017-11-19T13:32:12.120Z,45.96
2017-11-19T13:34:38.965Z,45.71
2017-11-19T13:37:05.762Z,45.10
2017-11-19T13:39:32.381Z,45.26
2017-11-19T13:41:59.197Z,45.55
2017-11-19T13:44:26.052Z,45.05
2017-11-19T13:46:51.841Z,45.27
2017-11-19T13:49:17.733Z,45.15
2017-11-19T13:51:43.572Z,45.66
2017-11-19T13:54:09.373Z,45.31
2017-11-19T13:56:35.161Z,45.13
2017-11-19T13:59:00.932Z,45.34
2017-11-19T14:01:26.756Z,45.10
2017-11-19T14:06:25.192Z,45.98
2017-11-19T14:08:57.848Z,45.07
2017-11-19T14:14:20.516Z,45.71
2017-11-19T14:16:46.301Z,45.39
2017-11-19T14:19:12.997Z,45.43
2017-11-19T14:21:39.002Z,45.34
2017-11-19T14:24:04.794Z,45.41
2017-11-19T14:26:30.574Z,45.74
2017-11-19T14:28:56.358Z,45.17
2017-11-19T14:31:22.152Z,44.90
2017-11-19T14:33:48.929Z,44.73
2017-11-19T14:36:14.718Z,45.81
2017-11-19T14:38:40.552Z,44.70
2017-11-19T14:41:06.343Z,44.64
2017-11-19T14:43:32.145Z,44.49
2017-11-19T14:45:57.946Z,44.38
2017-11-19T14:48:23.745Z,44.44
2017-11-19T14:50:49.572Z,44.80
2017-11-19T14:53:15.390Z,44.78
2017-11-19T14:55:42.197Z,45.74
2017-11-19T14:58:08.947Z,46.01
2017-11-19T15:00:34.743Z,45.00
2017-11-19T15:03:00.724Z,45.23
2017-11-19T15:05:26.525Z,45.88
2017-11-19T15:07:52.330Z,45.66
2017-11-19T15:10:19.722Z,45.16
2017-11-19T15:12:45.521Z,45.11
2017-11-19T15:15:11.415Z,45.18
2017-11-19T15:17:37.243Z,45.45
2017-11-19T15:20:03.033Z,45.20
2017-11-19T15:22:29.637Z,45.36
2017-11-19T15:24:56.490Z,45.73
2017-11-19T15:27:22.334Z,45.10
2017-11-19T15:29:48.131Z,44.83
2017-11-19T15:32:13.922Z,44.91
2017-11-19T15:34:39.715Z,45.04
2017-11-19T15:37:05.514Z,44.91
2017-11-19T15:39:31.342Z,44.76
2017-11-19T15:41:57.189Z,44.92
2017-11-19T15:44:23.113Z,44.83
2017-11-19T15:46:48.907Z,45.32
2017-11-19T15:49:14.828Z,45.57
2017-11-19T15:51:40.628Z,45.76
2017-11-19T15:54:06.572Z,45.07
2017-11-19T15:56:32.374Z,45.09
2017-11-19T15:58:58.184Z,45.61
2017-11-19T16:01:24.033Z,45.21
2017-11-19T16:03:49.827Z,45.25
2017-11-19T16:06:15.751Z,45.41
2017-11-19T16:08:42.623Z,45.50
2017-11-19T16:11:09.394Z,45.78
2017-11-19T16:13:35.179Z,45.51
2017-11-19T16:16:00.974Z,45.42
2017-11-19T16:18:26.787Z,45.33
2017-11-19T16:20:52.588Z,45.83
2017-11-19T16:23:18.386Z,45.23
2017-11-19T16:25:44.373Z,45.34
2017-11-19T16:28:10.167Z,45.74
2017-11-19T16:30:36.805Z,45.26
2017-11-19T16:33:02.626Z,45.36
2017-11-19T16:35:28.428Z,45.27
2017-11-19T16:37:54.290Z,45.13
2017-11-19T16:40:20.131Z,45.16
2017-11-19T16:42:45.990Z,45.17
2017-11-19T16:45:11.854Z,45.29
2017-11-19T16:47:37.641Z,45.08
2017-11-19T16:50:03.436Z,44.97
2017-11-19T16:52:29.223Z,44.90
2017-11-19T16:54:55.036Z,44.87
2017-11-19T16:57:20.894Z,44.77
2017-11-19T16:59:46.769Z,44.59
2017-11-19T17:02:12.734Z,44.50
2017-11-19T17:04:39.659Z,44.74
2017-11-19T17:07:05.488Z,44.76
2017-11-19T17:09:34.658Z,44.85
2017-11-19T17:12:00.507Z,45.03
2017-11-19T17:14:26.293Z,44.63
2017-11-19T17:16:52.083Z,44.98
2017-11-19T17:19:18.921Z,44.72
2017-11-19T17:21:44.724Z,44.82
2017-11-19T17:24:10.606Z,44.79
2017-11-19T17:26:36.399Z,44.81
2017-11-19T17:29:02.229Z,45.03
2017-11-19T17:31:28.068Z,45.03
2017-11-19T17:33:53.868Z,46.34
2017-11-19T17:36:25.630Z,45.76
2017-11-19T17:38:51.417Z,45.81
2017-11-19T17:41:17.270Z,46.35
2017-11-19T17:43:43.050Z,46.12
2017-11-19T17:46:08.878Z,45.66
2017-11-19T17:48:34.668Z,45.61
2017-11-19T17:51:00.494Z,45.77
2017-11-19T17:53:26.485Z,45.65
2017-11-19T17:55:52.405Z,46.32
2017-11-19T17:58:18.209Z,45.89
2017-11-19T18:00:44.006Z,45.84
2017-11-19T18:03:09.842Z,45.80
2017-11-19T18:05:35.678Z,45.74
2017-11-19T18:08:01.493Z,45.90
2017-11-19T18:10:27.303Z,46.02
2017-11-19T18:12:55.966Z,45.47
2017-11-19T18:15:21.762Z,46.10
2017-11-19T18:17:47.561Z,45.74
2017-11-19T18:20:13.467Z,45.46
2017-11-19T18:22:39.310Z,45.22
2017-11-19T18:25:05.218Z,45.31
2017-11-19T18:27:31.308Z,45.38
2017-11-19T18:29:57.199Z,45.71
2017-11-19T18:32:23.006Z,45.25
2017-11-19T18:34:48.808Z,45.07
2017-11-19T18:37:14.753Z,45.15
2017-11-19T18:39:40.657Z,45.79
2017-11-19T18:42:06.452Z,45.49
2017-11-19T18:44:32.267Z,45.38
2017-11-19T18:46:58.197Z,45.36
2017-11-19T18:49:24.041Z,45.39
2017-11-19T18:51:49.838Z,45.69
2017-11-19T18:54:15.659Z,45.14
2017-11-19T18:56:41.445Z,45.27
2017-11-19T18:59:07.277Z,45.32
2017-11-19T19:01:33.117Z,45.56
2017-11-19T19:03:58.913Z,45.22
2017-11-19T19:06:24.704Z,45.41
2017-11-19T19:08:51.445Z,45.28
2017-11-19T19:11:17.277Z,45.63
2017-11-19T19:13:43.067Z,45.32
2017-11-19T19:16:08.928Z,45.40
2017-11-19T19:18:34.741Z,45.53
2017-11-19T19:21:00.770Z,45.49
2017-11-19T19:23:26.683Z,45.32
2017-11-19T19:25:52.770Z,45.40
2017-11-19T19:28:19.326Z,45.36
2017-11-19T19:30:48.011Z,45.37
2017-11-19T19:33:15.112Z,45.51
2017-11-19T19:35:41.042Z,45.48
2017-11-19T19:38:06.980Z,45.43
2017-11-19T19:40:32.896Z,45.27
2017-11-19T19:43:00.476Z,45.23
2017-11-19T19:45:27.925Z,45.25
2017-11-19T19:47:55.874Z,45.28
2017-11-19T19:50:24.139Z,45.34
2017-11-19T19:52:53.552Z,45.42
2017-11-19T19:55:22.903Z,45.20
2017-11-19T19:57:53.327Z,45.22
2017-11-19T20:00:25.432Z,45.01
2017-11-19T20:02:57.974Z,45.17
2017-11-19T20:05:28.763Z,44.95
2017-11-19T20:07:56.449Z,44.96
2017-11-19T20:10:25.845Z,44.88
2017-11-19T20:13:09.005Z,44.98
2017-11-19T20:15:35.525Z,45.28
2017-11-19T20:18:03.454Z,45.08
2017-11-19T20:20:30.345Z,45.05
2017-11-19T20:23:02.162Z,45.29
2017-11-19T20:25:30.780Z,45.10
2017-11-19T20:27:57.656Z,44.86
2017-11-19T20:30:24.389Z,45.00
2017-11-19T20:33:01.309Z,45.13
2017-11-19T20:35:28.585Z,45.17
2017-11-19T20:38:02.530Z,45.40
2017-11-19T20:40:31.237Z,46.00
2017-11-19T20:42:57.937Z,45.32
2017-11-19T20:45:25.405Z,45.47
2017-11-19T20:47:56.358Z,46.11
2017-11-19T20:50:24.587Z,45.11
2017-11-19T20:52:55.213Z,45.58
2017-11-19T20:55:29.341Z,45.96
2017-11-19T21:00:56.718Z,45.29
2017-11-19T21:03:26.306Z,45.20
2017-11-19T21:05:52.138Z,45.66
2017-11-19T21:08:24.991Z,45.37
2017-11-19T21:10:55.905Z,45.11
2017-11-19T21:13:27.013Z,44.99
2017-11-19T21:15:59.434Z,45.50
2017-11-19T21:18:33.074Z,45.20
2017-11-19T21:21:09.386Z,45.22
2017-11-19T21:23:41.206Z,45.26
2017-11-19T21:26:08.651Z,46.21
2017-11-19T21:28:36.823Z,45.80
2017-11-19T21:31:06.288Z,45.39
2017-11-19T21:33:37.502Z,45.69
2017-11-19T21:36:07.968Z,46.21
2017-11-19T21:38:35.576Z,46.13
2017-11-19T21:41:05.847Z,45.42
2017-11-19T21:43:34.590Z,45.54
2017-11-19T21:46:03.019Z,45.68
2017-11-19T21:48:32.237Z,46.07
2017-11-19T21:50:59.324Z,45.96
2017-11-19T21:53:26.804Z,46.02
2017-11-19T21:55:55.353Z,46.55
2017-11-19T21:58:24.428Z,45.78
2017-11-19T22:00:53.013Z,45.65
2017-11-19T22:03:21.429Z,45.58
2017-11-19T22:05:48.385Z,45.67
2017-11-19T22:08:14.173Z,45.33
2017-11-19T22:10:39.998Z,45.80
2017-11-19T22:13:05.836Z,45.40
2017-11-19T22:15:32.482Z,45.42
2017-11-19T22:17:58.265Z,45.53
2017-11-19T22:20:25.045Z,45.11
2017-11-19T22:22:51.789Z,45.36
2017-11-19T22:25:18.599Z,45.83
2017-11-19T22:27:44.393Z,46.23
2017-11-19T22:30:10.228Z,45.16
2017-11-19T22:32:36.044Z,46.49
2017-11-19T22:35:02.742Z,44.98
2017-11-19T22:37:28.573Z,44.95
2017-11-19T22:39:55.336Z,45.67
2017-11-19T22:42:22.057Z,45.00
2017-11-19T22:44:47.880Z,46.55
2017-11-19T22:47:13.657Z,45.23
2017-11-19T22:49:39.489Z,44.86
2017-11-19T22:52:06.263Z,45.23
2017-11-19T22:54:32.093Z,44.99
2017-11-19T22:56:58.945Z,44.94
2017-11-19T22:59:24.738Z,44.79
2017-11-19T23:01:50.769Z,45.20
2017-11-19T23:04:17.396Z,44.64
2017-11-19T23:06:44.226Z,44.62
2017-11-19T23:09:10.992Z,44.78
2017-11-19T23:11:36.781Z,44.88
2017-11-19T23:14:02.957Z,44.70
2017-11-19T23:16:28.760Z,44.61
2017-11-19T23:18:55.541Z,44.65
2017-11-19T23:21:22.345Z,45.65
2017-11-19T23:23:49.072Z,44.76
2017-11-19T23:26:15.787Z,44.71
2017-11-19T23:28:41.611Z,45.32
2017-11-19T23:31:07.399Z,44.65
2017-11-19T23:33:33.215Z,44.99
2017-11-19T23:36:00.022Z,44.88
2017-11-19T23:38:25.805Z,45.34
2017-11-19T23:40:51.613Z,44.71
2017-11-19T23:43:17.449Z,44.80
2017-11-19T23:45:43.234Z,44.73
2017-11-19T23:48:09.977Z,45.03
2017-11-19T23:50:35.760Z,44.57
2017-11-19T23:53:01.552Z,44.60
2017-11-19T23:55:27.353Z,44.45
2017-11-19T23:57:53.138Z,44.33
